Latest Weather Observations for Hobart Airport

IDT60901

Issued at 4:11 am EDT Friday 23 February 2024 (issued every 10 minutes, with the page automatically refreshed every 10 minutes)

About weather observations | Map of Hobart area stations | Latest observations for Hobart area | Other Formats
Station Details ID: 094250 Name: HOBART AIRPORT Lat: -42.83 Lon: 147.51 Height: 2.2 m
Data from the previous 72 hours. | See also: Recent months at Hobart Airport
Date/Time
EDT
Temp
°C
App
Temp
°C
Dew
Point
°C
Rel
Hum
%
Delta-T
°C
Wind Press
QNH
hPa
Press
MSL
hPa
Rain since
9am
mm
Dir  Spd
km/h
Gust
km/h
Spd
kts
Gust
kts
23/04:00am 18.0 14.4 8.3 53 5.0 NNW 17 26 9 14 998.9 998.9 0.0
23/03:30am 17.8 13.3 8.4 54 4.8 NW 22 30 12 16 998.9 998.9 0.0
23/03:07am 17.6 13.5 8.7 56 4.6 NW 20 37 11 20 998.6 998.6 0.0
23/03:00am 17.5 14.7 8.4 55 4.7 NW 13 17 7 9 998.8 998.8 0.0
23/02:30am 18.4 14.7 9.5 56 4.7 NW 19 28 10 15 998.7 998.7 0.0
23/02:00am 19.0 15.4 10.0 56 4.8 WNW 19 28 10 15 998.6 998.6 0.0
23/01:30am 19.6 17.0 10.6 56 4.9 WNW 15 20 8 11 998.5 998.5 0.0
23/01:00am 20.6 18.2 11.5 56 5.1 NW 15 20 8 11 998.3 998.3 0.0
23/12:30am 21.3 19.0 13.0 59 4.7 N 17 28 9 15 998.1 998.1 0.0
23/12:00am 18.6 18.9 14.9 79 2.2 E 7 9 4 5 998.1 998.1 0.0
 
Date/Time
EDT
Temp
°C
App
Temp
°C
Dew
Point
°C
Rel
Hum
%
Delta-T
°C
Wind Press
QNH
hPa
Press
MSL
hPa
Rain since
9am
mm
Dir  Spd
km/h
Gust
km/h
Spd
kts
Gust
kts
22/11:30pm 19.3 19.9 15.8 80 2.1 S 7 11 4 6 998.2 998.2 0.0
22/11:00pm 20.0 19.8 14.6 71 3.2 WSW 9 11 5 6 998.1 998.1 0.0
22/10:30pm 21.4 21.3 15.0 67 3.8 SW 9 15 5 8 998.0 998.0 0.0
22/10:00pm 24.8 21.9 14.0 51 6.4 WNW 22 37 12 20 997.2 997.2 0.0
22/09:30pm 26.9 22.6 13.3 43 8.0 N 28 39 15 21 996.6 996.6 0.0
22/09:00pm 27.5 23.6 13.4 41 8.4 N 26 37 14 20 996.2 996.2 0.0
22/08:30pm 28.8 24.3 12.7 37 9.5 N 28 39 15 21 995.8 995.8 0.0
22/08:00pm 29.6 25.1 12.5 35 10.1 N 28 43 15 23 995.7 995.7 0.0
22/07:30pm 31.0 25.2 10.9 29 11.6 NNW 32 50 17 27 995.5 995.5 0.0
22/07:00pm 31.6 25.8 11.4 29 11.8 NNW 33 56 18 30 995.6 995.6 0.0
22/06:30pm 32.3 26.7 12.0 29 12.0 NNW 33 52 18 28 995.5 995.5 0.0
22/06:02pm 32.4 27.5 12.6 30 11.8 N 30 48 16 26 995.4 995.4 0.0
22/06:00pm 32.6 27.4 12.8 30 11.9 N 32 48 17 26 995.4 995.4 0.0
22/05:30pm 32.8 26.9 12.4 29 12.1 N 35 59 19 32 995.5 995.5 0.0
22/05:00pm 33.4 28.0 12.9 28 12.4 N 33 50 18 27 995.5 995.5 0.0
22/04:30pm 34.2 29.1 13.1 28 12.7 NNW 32 48 17 26 995.8 995.8 0.0
22/04:14pm 34.2 28.9 13.1 28 12.7 NNW 33 54 18 29 995.7 995.7 0.0
22/04:00pm 34.8 30.4 14.1 28 12.8 N 30 41 16 22 996.1 996.1 0.0
22/03:30pm 33.5 28.1 14.0 30 11.9 N 35 57 19 31 996.7 996.7 0.0
22/03:00pm 33.0 26.7 13.6 31 11.8 NNW 39 57 21 31 997.0 997.0 0.0
22/02:30pm 31.6 24.7 12.9 32 11.1 N 41 69 22 37 997.2 997.2 0.0
22/02:00pm 32.8 25.9 12.9 29 12.0 NNW 41 61 22 33 998.2 998.2 0.0
22/01:30pm 32.0 26.4 13.2 31 11.3 N 35 54 19 29 999.3 999.3 0.0
22/01:00pm 30.1 24.5 13.4 36 10.0 N 35 54 19 29 1000.4 1000.4 0.0
22/12:38pm 28.6 23.4 13.3 39 9.1 NNW 33 52 18 28 1001.3 1001.3 0.0
22/12:30pm 28.6 23.6 13.3 39 9.1 NNW 32 46 17 25 1001.7 1001.7 0.0
22/12:00pm 27.9 25.0 15.2 46 7.8 N 24 33 13 18 1002.6 1002.6 0.0
22/11:31am 26.1 22.6 15.5 52 6.4 N 28 46 15 25 1003.3 1003.3 0.0
22/11:30am 26.1 22.6 15.5 52 6.4 N 28 43 15 23 1003.4 1003.4 0.0
22/11:00am 26.2 23.9 15.6 52 6.5 N 22 35 12 19 1004.1 1004.1 0.0
22/10:30am 25.8 23.4 15.5 53 6.2 N 22 32 12 17 1004.3 1004.3 0.0
22/10:00am 25.4 23.1 15.7 55 5.9 N 22 33 12 18 1004.9 1004.9 0.0
22/09:30am 24.9 23.0 15.8 57 5.5 NNW 20 30 11 16 1005.4 1005.4 0.0
22/09:00am 24.9 22.6 15.8 57 5.5 NNW 22 33 12 18 1005.8 1005.8 0.0
22/08:30am 23.6 21.0 15.9 62 4.7 N 24 33 13 18 1006.1 1006.1 0.0
22/08:00am 23.3 20.7 15.9 63 4.5 N 24 33 13 18 1006.1 1006.1 0.0
22/07:30am 22.8 20.8 15.6 64 4.3 N 20 32 11 17 1006.3 1006.3 0.0
22/07:00am 22.7 20.8 15.3 63 4.4 N 19 33 10 18 1006.5 1006.5 0.0
22/06:30am 22.5 20.1 15.4 64 4.2 N 22 37 12 20 1006.4 1006.4 0.0
22/06:00am 22.3 20.8 15.2 64 4.2 N 17 24 9 13 1007.0 1007.0 0.0
22/05:30am 22.2 21.1 15.3 65 4.1 N 15 22 8 12 1007.3 1007.3 0.0
22/05:00am 21.8 21.3 15.9 69 3.6 NNE 13 19 7 10 1007.6 1007.6 0.0
22/04:30am 22.0 21.1 15.8 68 3.7 N 15 20 8 11 1007.7 1007.7 0.0
22/04:00am 22.3 21.0 15.9 67 3.9 N 17 24 9 13 1008.2 1008.2 0.0
22/03:30am 22.2 20.9 15.8 67 3.8 N 17 22 9 12 1008.4 1008.4 0.0
22/03:00am 22.3 21.0 15.9 67 3.9 N 17 24 9 13 1008.7 1008.7 0.0
22/02:30am 22.6 21.6 15.7 65 4.1 N 15 22 8 12 1009.1 1009.1 0.0
22/02:00am 22.8 22.0 15.1 62 4.6 N 13 20 7 11 1009.4 1009.4 0.0
22/01:30am 23.0 21.1 15.1 61 4.7 NNW 19 28 10 15 1009.7 1009.7 0.0
22/01:00am 23.4 21.2 14.9 59 5.1 NNW 20 33 11 18 1009.7 1009.7 0.0
22/12:30am 23.3 22.5 15.1 60 4.9 N 13 20 7 11 1010.1 1010.1 0.0
22/12:00am 23.9 21.7 14.9 57 5.4 N 20 30 11 16 1010.5 1010.5 0.0
 
Date/Time
EDT
Temp
°C
App
Temp
°C
Dew
Point
°C
Rel
Hum
%
Delta-T
°C
Wind Press
QNH
hPa
Press
MSL
hPa
Rain since
9am
mm
Dir  Spd
km/h
Gust
km/h
Spd
kts
Gust
kts
21/11:30pm 23.9 22.3 14.9 57 5.4 NNW 17 33 9 18 1010.9 1010.9 0.0
21/11:00pm 24.2 22.2 14.9 56 5.6 NNW 19 32 10 17 1011.0 1011.0 0.0
21/10:30pm 23.8 22.9 14.8 57 5.4 NNW 13 17 7 9 1011.2 1011.2 0.0
21/10:00pm 24.7 23.4 14.8 54 5.9 N 15 24 8 13 1011.3 1011.3 0.0
21/09:30pm 25.6 23.8 14.4 50 6.7 N 17 24 9 13 1011.2 1011.2 0.0
21/09:00pm 26.2 23.7 14.0 47 7.2 N 20 32 11 17 1010.9 1010.9 0.0
21/08:30pm 26.8 24.2 13.9 45 7.7 N 20 30 11 16 1010.6 1010.6 0.0
21/08:00pm 27.4 24.4 13.7 43 8.1 N 22 33 12 18 1010.1 1010.1 0.0
21/07:30pm 28.2 24.9 14.1 42 8.4 N 24 41 13 22 1009.9 1009.9 0.0
21/07:00pm 28.7 26.0 14.5 42 8.6 N 22 37 12 20 1009.8 1009.8 0.0
21/06:30pm 28.7 26.6 16.3 47 7.7 NNE 22 37 12 20 1009.7 1009.7 0.0
21/06:00pm 29.0 26.1 16.2 46 7.9 NNE 26 37 14 20 1009.8 1009.8 0.0
21/05:30pm 28.8 25.6 16.4 47 7.7 NNE 28 37 15 20 1009.9 1009.9 0.0
21/05:00pm 28.1 25.1 16.7 50 7.1 NNE 28 41 15 22 1010.2 1010.2 0.0
21/04:30pm 27.4 25.6 17.0 53 6.5 NNE 22 37 12 20 1010.7 1010.7 0.0
21/04:00pm 27.3 24.6 17.5 55 6.2 NE 28 37 15 20 1011.0 1011.0 0.0
21/03:30pm 27.7 25.4 16.6 50 6.9 NNE 24 37 13 20 1011.6 1011.6 0.0
21/03:00pm 27.8 24.9 16.1 49 7.2 NNE 26 39 14 21 1012.2 1012.2 0.0
21/02:30pm 27.4 24.6 16.4 51 6.8 NNE 26 33 14 18 1013.0 1013.0 0.0
21/02:00pm 26.7 24.5 16.9 55 6.1 NE 24 35 13 19 1013.4 1013.4 0.0
21/01:30pm 27.5 25.7 16.1 49 7.0 NNE 20 30 11 16 1013.8 1013.8 0.0
21/01:00pm 26.3 25.9 16.3 54 6.1 NE 13 22 7 12 1014.5 1014.5 0.0
21/12:30pm 25.7 25.7 15.1 52 6.4 ESE 9 15 5 8 1015.2 1015.2 0.0
21/12:00pm 24.7 25.4 15.6 57 5.5 NE 6 11 3 6 1016.0 1016.0 0.0
21/11:30am 24.0 24.0 15.2 58 5.3 NNW 9 15 5 8 1016.6 1016.6 0.0
21/11:00am 23.4 23.2 15.7 62 4.6 NNE 11 13 6 7 1017.1 1017.1 0.0
21/10:30am 21.7 21.7 15.1 66 3.9 WNW 9 13 5 7 1017.7 1017.7 0.0
21/10:00am 21.0 21.2 14.6 67 3.7 NW 7 11 4 6 1018.0 1018.0 0.0
21/09:30am 19.4 19.1 14.4 73 2.9 WNW 9 11 5 6 1018.2 1018.2 0.0
21/09:00am 18.6 19.5 14.1 75 2.6 WNW 2 9 1 5 1018.3 1018.3 0.0
21/08:30am 18.0 17.5 13.7 76 2.4 NW 9 11 5 6 1018.3 1018.3 0.0
21/08:00am 17.3 16.3 13.4 78 2.2 NW 11 13 6 7 1018.5 1018.5 0.0
21/07:30am 17.2 16.6 13.5 79 2.1 WNW 9 13 5 7 1018.5 1018.5 0.0
21/07:00am 16.5 17.3 13.8 84 1.5 NW 2 6 1 3 1018.4 1018.4 0.0
21/06:30am 16.3 16.0 13.2 82 1.7 WNW 7 9 4 5 1018.2 1018.2 0.0
21/06:00am 15.8 15.4 13.1 84 1.5 W 7 9 4 5 1018.2 1018.2 0.0
21/05:30am 15.8 15.8 13.6 87 1.2 WNW 6 9 3 5 1018.0 1018.0 0.0
21/05:00am 15.5 14.2 13.7 89 1.0 NW 13 15 7 8 1018.2 1018.2 0.0
21/04:30am 14.9 14.2 13.1 89 1.0 NW 9 13 5 7 1018.0 1018.0 0.0
21/04:01am 14.7 14.1 11.7 82 1.6 WNW 6 6 3 3 1018.2 1018.2 0.0
21/04:00am 14.7 14.1 11.7 82 1.6 WNW 6 6 3 3 1018.3 1018.3 0.0
21/03:44am 15.1 15.0 12.1 82 1.6 WNW 4 7 2 4 1018.5 1018.5 0.0
21/03:30am 14.8 15.1 12.1 84 1.5 WNW 2 6 1 3 1018.5 1018.5 0.0
21/03:00am 14.7 14.5 11.8 83 1.6 WNW 4 7 2 4 1018.6 1018.6 0.0
21/02:30am 15.7 16.1 12.6 82 1.7 N 2 7 1 4 1019.0 1019.0 0.0
21/02:00am 14.7 13.9 11.8 83 1.6 NW 7 11 4 6 1019.4 1019.4 0.0
21/01:30am 14.8 14.2 12.3 85 1.4 NW 7 9 4 5 1019.3 1019.3 0.0
21/01:00am 16.4 15.2 12.8 79 2.0 NW 11 13 6 7 1019.7 1019.7 0.0
21/12:30am 17.6 16.0 12.7 73 2.7 N 13 20 7 11 1019.6 1019.6 0.0
21/12:00am 16.1 16.3 11.9 76 2.3 NE 2 7 1 4 1019.8 1019.8 0.0
 
Date/Time
EDT
Temp
°C
App
Temp
°C
Dew
Point
°C
Rel
Hum
%
Delta-T
°C
Wind Press
QNH
hPa
Press
MSL
hPa
Rain since
9am
mm
Dir  Spd
km/h
Gust
km/h
Spd
kts
Gust
kts
20/11:30pm 17.0 16.1 11.5 70 3.0 N 7 11 4 6 1019.9 1019.9 0.0
20/11:00pm 17.9 16.9 12.4 70 3.0 N 9 13 5 7 1020.0 1020.0 0.0
20/10:30pm 18.5 16.4 12.5 68 3.3 NNE 15 20 8 11 1020.2 1020.2 0.0
20/10:00pm 18.2 16.7 12.0 67 3.4 NE 11 15 6 8 1020.3 1020.3 0.0
20/09:30pm 18.5 16.9 11.6 64 3.8 NNE 11 13 6 7 1020.3 1020.3 0.0
20/09:00pm 18.9 17.3 11.7 63 4.0 NE 11 15 6 8 1020.0 1020.0 0.0
20/08:30pm 19.5 17.1 11.5 60 4.4 NE 15 19 8 10 1019.6 1019.6 0.0
20/08:00pm 20.3 18.6 12.5 61 4.4 NE 13 20 7 11 1019.3 1019.3 0.0
20/07:30pm 21.0 19.4 11.6 55 5.2 ENE 11 17 6 9 1019.2 1019.2 0.0
20/07:00pm 21.7 19.0 11.7 53 5.6 NE 17 22 9 12 1019.0 1019.0 0.0
20/06:30pm 22.9 20.2 11.6 49 6.3 ENE 17 24 9 13 1019.0 1019.0 0.0
20/06:00pm 22.7 19.5 11.4 49 6.3 ENE 19 26 10 14 1019.0 1019.0 0.0
20/05:30pm 23.3 20.5 11.4 47 6.7 NE 17 24 9 13 1019.0 1019.0 0.0
20/05:00pm 23.5 20.4 11.5 47 6.7 NE 19 24 10 13 1018.9 1018.9 0.0
20/04:30pm 23.9 21.6 11.6 46 6.9 E 15 20 8 11 1019.0 1019.0 0.0
20/04:00pm 23.9 21.8 11.3 45 7.0 NE 13 20 7 11 1019.2 1019.2 0.0
20/03:30pm 24.0 20.8 11.3 45 7.1 NE 19 26 10 14 1019.4 1019.4 0.0
20/03:00pm 23.7 22.2 12.0 47 6.6 ESE 11 22 6 12 1019.6 1019.6 0.0
20/02:30pm 23.3 20.3 12.0 49 6.4 SE 19 24 10 13 1019.8 1019.8 0.0
20/02:00pm 22.6 20.0 12.0 51 6.0 SSE 17 20 9 11 1020.2 1020.2 0.0
20/01:30pm 22.6 19.7 12.3 52 5.8 SSE 19 22 10 12 1020.2 1020.2 0.0
20/01:00pm 22.4 19.4 12.1 52 5.8 SSE 19 22 10 12 1020.4 1020.4 0.0
20/12:30pm 22.7 21.6 12.0 50 6.0 E 9 19 5 10 1020.7 1020.7 0.0
20/12:00pm 22.7 20.7 11.4 49 6.3 NE 13 20 7 11 1021.0 1021.0 0.0
20/11:30am 21.2 19.4 10.7 51 5.7 ENE 11 20 6 11 1021.4 1021.4 0.0
20/11:00am 21.0 19.2 10.8 52 5.6 NNE 11 15 6 8 1021.7 1021.7 0.0
20/10:30am 20.6 18.4 10.7 53 5.4 N 13 17 7 9 1021.8 1021.8 0.0
20/10:00am 19.7 17.4 10.4 55 5.0 NNE 13 19 7 10 1021.9 1021.9 0.0
20/09:30am 18.3 16.1 10.7 61 4.1 NW 13 17 7 9 1022.3 1022.3 0.0
20/09:00am 17.8 15.7 9.9 60 4.2 N 11 15 6 8 1022.3 1022.3 0.0
20/08:30am 17.3 15.6 10.0 62 3.9 N 9 15 5 8 1022.4 1022.4 0.0
20/08:00am 17.0 15.0 10.1 64 3.6 N 11 13 6 7 1022.3 1022.3 0.0
20/07:30am 16.4 14.9 10.5 68 3.1 N 9 11 5 6 1022.3 1022.3 0.0
20/07:00am 15.6 14.0 10.2 70 2.8 NNW 9 9 5 5 1022.2 1022.2 0.0
20/06:30am 15.6 14.4 10.2 70 2.8 N 7 11 4 6 1022.1 1022.1 0.0
20/06:00am 16.1 14.9 10.4 69 3.0 N 7 9 4 5 1021.9 1021.9 0.0
20/05:30am 16.2 14.3 10.5 69 3.0 NNE 11 15 6 8 1022.0 1022.0 0.0
20/05:00am 16.1 14.6 10.4 69 3.0 N 9 15 5 8 1022.1 1022.1 0.0
20/04:30am 16.0 14.8 10.3 69 3.0 N 7 11 4 6 1022.1 1022.1 0.0

Latest Capital City Observations: Canberra | Sydney | Melbourne | Brisbane | Adelaide | Perth | Hobart | Darwin

Other formats

Comma delimited format used in spreadsheet applications
http://www.bom.gov.au/fwo/IDT60901/IDT60901.94619.axf

JavaScript Object Notation format (JSON) in row-major order
http://www.bom.gov.au/fwo/IDT60901/IDT60901.94619.json

Data quality

Most of these data are generated automatically and are frequently updated. Quality checks on data are not normally performed. It is possible for incorrect values to appear. Refer to information at About Latest Weather Observations and please check the disclaimer before using these data.